Weather at KFOR Camp Maxhunaj Heliport

Public forecast

Using degrees Celsius for public forecast. Weather courtesy of forecast.io.

Closest aviation weather report (METAR) to KFOR Camp Maxhunaj Heliport

Closest report is Priština Adem Jashari International Airport, 12.6 nm (23.3 km) S.

2024/05/20 18:30 (retrieved 12 seconds ago)

BKPR 201830Z 14004KT 9999 FEW050 20/18 Q1013 NOSIG

Closest aviation forecast (TAF) to KFOR Camp Maxhunaj Heliport

Closest forecast is Priština Adem Jashari International Airport, 12.6 nm (23.3 km) S.

2024/05/20 18:00 (retrieved 30 minutes ago)

TAF BKPR 201730Z 2018/2118 VRB05KT 9999 SCT050 TEMPO 2103/2106 3000 BR BECMG 2106/2108 14012KT TEMPO 2112/2117 4000 TSRA SCT030CB